sensor_id;sensor_type;location;lat;lon;timestamp;temperature;humidity
24286;DHT22;26641;45.416;10.992;2023-07-02T00:01:26;25.50;99.90
24286;DHT22;26641;45.416;10.992;2023-07-02T00:03:52;25.50;99.90
24286;DHT22;26641;45.416;10.992;2023-07-02T00:06:18;25.60;99.90
24286;DHT22;26641;45.416;10.992;2023-07-02T00:08:44;25.50;99.90
24286;DHT22;26641;45.416;10.992;2023-07-02T00:11:10;25.60;99.90
24286;DHT22;26641;45.416;10.992;2023-07-02T00:13:38;25.60;99.90
24286;DHT22;26641;45.416;10.992;2023-07-02T00:16:04;25.60;99.90
24286;DHT22;26641;45.416;10.992;2023-07-02T00:18:30;25.60;99.90
24286;DHT22;26641;45.416;10.992;2023-07-02T00:21:02;25.60;99.90
24286;DHT22;26641;45.416;10.992;2023-07-02T00:23:28;25.60;99.90
24286;DHT22;26641;45.416;10.992;2023-07-02T00:25:54;25.60;99.90
24286;DHT22;26641;45.416;10.992;2023-07-02T00:28:20;25.60;99.90
24286;DHT22;26641;45.416;10.992;2023-07-02T00:30:46;25.60;99.90
24286;DHT22;26641;45.416;10.992;2023-07-02T00:33:11;25.60;99.90
24286;DHT22;26641;45.416;10.992;2023-07-02T00:35:37;25.60;99.90
24286;DHT22;26641;45.416;10.992;2023-07-02T00:38:03;25.60;99.90
24286;DHT22;26641;45.416;10.992;2023-07-02T00:40:29;25.60;99.90
24286;DHT22;26641;45.416;10.992;2023-07-02T00:42:55;25.60;99.90
24286;DHT22;26641;45.416;10.992;2023-07-02T00:45:22;25.60;99.90
24286;DHT22;26641;45.416;10.992;2023-07-02T00:47:48;25.60;99.90
24286;DHT22;26641;45.416;10.992;2023-07-02T00:50:14;25.60;99.90
24286;DHT22;26641;45.416;10.992;2023-07-02T00:52:40;25.70;99.90
24286;DHT22;26641;45.416;10.992;2023-07-02T00:55:05;25.70;99.90
24286;DHT22;26641;45.416;10.992;2023-07-02T00:57:31;25.60;99.90
24286;DHT22;26641;45.416;10.992;2023-07-02T00:59:57;25.60;99.90
24286;DHT22;26641;45.416;10.992;2023-07-02T01:02:25;25.60;99.90
24286;DHT22;26641;45.416;10.992;2023-07-02T01:04:51;25.60;99.90
24286;DHT22;26641;45.416;10.992;2023-07-02T01:07:23;25.70;99.90
24286;DHT22;26641;45.416;10.992;2023-07-02T01:09:48;25.70;99.90
24286;DHT22;26641;45.416;10.992;2023-07-02T01:12:18;25.60;99.90
24286;DHT22;26641;45.416;10.992;2023-07-02T01:14:51;25.60;99.90
24286;DHT22;26641;45.416;10.992;2023-07-02T01:17:17;25.60;99.90
24286;DHT22;26641;45.416;10.992;2023-07-02T01:19:53;25.60;99.90
24286;DHT22;26641;45.416;10.992;2023-07-02T01:22:21;25.60;99.90
24286;DHT22;26641;45.416;10.992;2023-07-02T01:24:48;25.60;99.90
24286;DHT22;26641;45.416;10.992;2023-07-02T01:27:14;25.60;99.90
24286;DHT22;26641;45.416;10.992;2023-07-02T01:29:40;25.60;99.90
24286;DHT22;26641;45.416;10.992;2023-07-02T01:32:06;25.70;99.90
24286;DHT22;26641;45.416;10.992;2023-07-02T01:34:33;25.70;99.90
24286;DHT22;26641;45.416;10.992;2023-07-02T01:36:59;25.60;99.90
24286;DHT22;26641;45.416;10.992;2023-07-02T01:39:25;25.60;99.90
24286;DHT22;26641;45.416;10.992;2023-07-02T01:41:52;25.60;99.90
24286;DHT22;26641;45.416;10.992;2023-07-02T01:44:18;25.70;99.90
24286;DHT22;26641;45.416;10.992;2023-07-02T01:46:44;25.60;99.90
24286;DHT22;26641;45.416;10.992;2023-07-02T01:49:10;25.70;99.90
24286;DHT22;26641;45.416;10.992;2023-07-02T01:51:36;25.70;99.90
24286;DHT22;26641;45.416;10.992;2023-07-02T01:54:04;25.60;99.90
24286;DHT22;26641;45.416;10.992;2023-07-02T01:56:29;25.60;99.90
24286;DHT22;26641;45.416;10.992;2023-07-02T01:58:55;25.60;99.90
24286;DHT22;26641;45.416;10.992;2023-07-02T02:01:20;25.60;99.90
24286;DHT22;26641;45.416;10.992;2023-07-02T02:03:46;25.70;99.90
24286;DHT22;26641;45.416;10.992;2023-07-02T02:06:12;25.70;99.90
24286;DHT22;26641;45.416;10.992;2023-07-02T02:08:38;25.70;99.90
24286;DHT22;26641;45.416;10.992;2023-07-02T02:11:04;25.60;99.90
24286;DHT22;26641;45.416;10.992;2023-07-02T02:13:30;25.70;99.90
24286;DHT22;26641;45.416;10.992;2023-07-02T02:15:56;25.60;99.90
24286;DHT22;26641;45.416;10.992;2023-07-02T02:18:22;25.60;99.90
24286;DHT22;26641;45.416;10.992;2023-07-02T02:20:48;25.60;99.90
24286;DHT22;26641;45.416;10.992;2023-07-02T02:23:14;25.60;99.90
24286;DHT22;26641;45.416;10.992;2023-07-02T02:25:40;25.70;99.90
24286;DHT22;26641;45.416;10.992;2023-07-02T02:28:06;25.60;99.90
24286;DHT22;26641;45.416;10.992;2023-07-02T02:30:32;25.60;99.90
24286;DHT22;26641;45.416;10.992;2023-07-02T02:32:58;25.60;99.90
24286;DHT22;26641;45.416;10.992;2023-07-02T02:35:24;25.60;99.90
24286;DHT22;26641;45.416;10.992;2023-07-02T02:37:50;25.60;99.90
24286;DHT22;26641;45.416;10.992;2023-07-02T02:40:16;25.60;99.90
24286;DHT22;26641;45.416;10.992;2023-07-02T02:42:42;25.60;99.90
24286;DHT22;26641;45.416;10.992;2023-07-02T02:45:08;25.60;99.90
24286;DHT22;26641;45.416;10.992;2023-07-02T02:47:33;25.60;99.90
24286;DHT22;26641;45.416;10.992;2023-07-02T02:49:59;25.60;99.90
24286;DHT22;26641;45.416;10.992;2023-07-02T02:52:25;25.60;99.90
24286;DHT22;26641;45.416;10.992;2023-07-02T02:54:50;25.60;99.90
24286;DHT22;26641;45.416;10.992;2023-07-02T02:57:18;25.60;99.90
24286;DHT22;26641;45.416;10.992;2023-07-02T02:59:44;25.60;99.90
24286;DHT22;26641;45.416;10.992;2023-07-02T03:02:10;25.60;99.90
24286;DHT22;26641;45.416;10.992;2023-07-02T03:04:38;25.60;99.90
24286;DHT22;26641;45.416;10.992;2023-07-02T03:07:09;25.60;99.90
24286;DHT22;26641;45.416;10.992;2023-07-02T03:09:35;25.60;99.90
24286;DHT22;26641;45.416;10.992;2023-07-02T03:12:01;25.60;99.90
24286;DHT22;26641;45.416;10.992;2023-07-02T03:14:27;25.60;99.90
24286;DHT22;26641;45.416;10.992;2023-07-02T03:16:53;25.60;99.90
24286;DHT22;26641;45.416;10.992;2023-07-02T03:19:19;25.60;99.90
24286;DHT22;26641;45.416;10.992;2023-07-02T03:21:45;25.60;99.90
24286;DHT22;26641;45.416;10.992;2023-07-02T03:24:11;25.60;99.90
24286;DHT22;26641;45.416;10.992;2023-07-02T03:26:41;25.60;99.90
24286;DHT22;26641;45.416;10.992;2023-07-02T03:29:08;25.60;99.90
24286;DHT22;26641;45.416;10.992;2023-07-02T03:31:34;25.60;99.90
24286;DHT22;26641;45.416;10.992;2023-07-02T03:34:03;25.60;99.90
24286;DHT22;26641;45.416;10.992;2023-07-02T03:36:29;25.60;99.90
24286;DHT22;26641;45.416;10.992;2023-07-02T03:38:55;25.60;99.90
24286;DHT22;26641;45.416;10.992;2023-07-02T03:41:21;25.60;99.90
24286;DHT22;26641;45.416;10.992;2023-07-02T03:43:47;25.60;99.90
24286;DHT22;26641;45.416;10.992;2023-07-02T03:46:13;25.60;99.90
24286;DHT22;26641;45.416;10.992;2023-07-02T03:48:39;25.60;99.90
24286;DHT22;26641;45.416;10.992;2023-07-02T03:51:06;25.60;99.90
24286;DHT22;26641;45.416;10.992;2023-07-02T03:53:32;25.60;99.90
24286;DHT22;26641;45.416;10.992;2023-07-02T03:55:58;25.60;99.90
24286;DHT22;26641;45.416;10.992;2023-07-02T03:58:24;25.60;99.90
24286;DHT22;26641;45.416;10.992;2023-07-02T04:00:50;25.60;99.90
24286;DHT22;26641;45.416;10.992;2023-07-02T04:03:17;25.60;99.90
24286;DHT22;26641;45.416;10.992;2023-07-02T04:05:42;25.60;99.90
24286;DHT22;26641;45.416;10.992;2023-07-02T04:08:08;25.60;99.90
24286;DHT22;26641;45.416;10.992;2023-07-02T04:10:34;25.60;99.90
24286;DHT22;26641;45.416;10.992;2023-07-02T04:13:00;25.60;99.90
24286;DHT22;26641;45.416;10.992;2023-07-02T04:15:26;25.60;99.90
24286;DHT22;26641;45.416;10.992;2023-07-02T04:17:52;25.60;99.90
24286;DHT22;26641;45.416;10.992;2023-07-02T04:20:19;25.60;99.90
24286;DHT22;26641;45.416;10.992;2023-07-02T04:22:45;25.60;99.90
24286;DHT22;26641;45.416;10.992;2023-07-02T04:25:12;25.60;99.90
24286;DHT22;26641;45.416;10.992;2023-07-02T04:27:43;25.60;99.90
24286;DHT22;26641;45.416;10.992;2023-07-02T04:30:09;25.60;99.90
24286;DHT22;26641;45.416;10.992;2023-07-02T04:32:36;25.60;99.90
24286;DHT22;26641;45.416;10.992;2023-07-02T04:35:02;25.60;99.90
24286;DHT22;26641;45.416;10.992;2023-07-02T04:37:28;25.60;99.90
24286;DHT22;26641;45.416;10.992;2023-07-02T04:39:54;25.60;99.90
24286;DHT22;26641;45.416;10.992;2023-07-02T04:42:19;25.60;99.90
24286;DHT22;26641;45.416;10.992;2023-07-02T04:44:45;25.60;99.90
24286;DHT22;26641;45.416;10.992;2023-07-02T04:47:11;25.60;99.90
24286;DHT22;26641;45.416;10.992;2023-07-02T04:49:38;25.50;99.90
24286;DHT22;26641;45.416;10.992;2023-07-02T04:52:03;25.60;99.90
24286;DHT22;26641;45.416;10.992;2023-07-02T04:54:29;25.60;99.90
24286;DHT22;26641;45.416;10.992;2023-07-02T04:56:55;25.60;99.90
24286;DHT22;26641;45.416;10.992;2023-07-02T04:59:21;25.50;99.90
24286;DHT22;26641;45.416;10.992;2023-07-02T05:01:47;25.60;99.90
24286;DHT22;26641;45.416;10.992;2023-07-02T05:04:13;25.60;99.90
24286;DHT22;26641;45.416;10.992;2023-07-02T05:06:38;25.50;99.90
24286;DHT22;26641;45.416;10.992;2023-07-02T05:09:05;25.50;99.90
24286;DHT22;26641;45.416;10.992;2023-07-02T05:11:31;25.50;99.90
24286;DHT22;26641;45.416;10.992;2023-07-02T05:13:57;25.60;99.90
24286;DHT22;26641;45.416;10.992;2023-07-02T05:16:23;25.50;99.90
24286;DHT22;26641;45.416;10.992;2023-07-02T05:18:49;25.50;99.90
24286;DHT22;26641;45.416;10.992;2023-07-02T05:21:19;25.60;99.90
24286;DHT22;26641;45.416;10.992;2023-07-02T05:23:45;25.50;99.90
24286;DHT22;26641;45.416;10.992;2023-07-02T05:26:11;25.60;99.90
24286;DHT22;26641;45.416;10.992;2023-07-02T05:28:40;25.60;99.90
24286;DHT22;26641;45.416;10.992;2023-07-02T05:31:06;25.60;99.90
24286;DHT22;26641;45.416;10.992;2023-07-02T05:33:32;25.60;99.90
24286;DHT22;26641;45.416;10.992;2023-07-02T05:35:58;25.60;99.90
24286;DHT22;26641;45.416;10.992;2023-07-02T05:38:27;25.60;99.90
24286;DHT22;26641;45.416;10.992;2023-07-02T05:40:53;25.60;99.90
24286;DHT22;26641;45.416;10.992;2023-07-02T05:43:18;25.60;99.90
24286;DHT22;26641;45.416;10.992;2023-07-02T05:45:44;25.60;99.90
24286;DHT22;26641;45.416;10.992;2023-07-02T05:48:10;25.60;99.90
24286;DHT22;26641;45.416;10.992;2023-07-02T05:50:36;25.50;99.90
24286;DHT22;26641;45.416;10.992;2023-07-02T05:53:02;25.50;99.90
24286;DHT22;26641;45.416;10.992;2023-07-02T05:55:28;25.50;99.90
24286;DHT22;26641;45.416;10.992;2023-07-02T05:57:55;25.60;99.90
24286;DHT22;26641;45.416;10.992;2023-07-02T06:00:26;25.50;99.90
24286;DHT22;26641;45.416;10.992;2023-07-02T06:02:53;25.60;99.90
24286;DHT22;26641;45.416;10.992;2023-07-02T06:05:19;25.50;99.90
24286;DHT22;26641;45.416;10.992;2023-07-02T06:07:45;25.60;99.90
24286;DHT22;26641;45.416;10.992;2023-07-02T06:10:10;25.60;99.90
24286;DHT22;26641;45.416;10.992;2023-07-02T06:12:36;25.50;99.90
24286;DHT22;26641;45.416;10.992;2023-07-02T06:15:02;25.60;99.90
24286;DHT22;26641;45.416;10.992;2023-07-02T06:17:28;25.50;99.90
24286;DHT22;26641;45.416;10.992;2023-07-02T06:19:56;25.60;99.90
24286;DHT22;26641;45.416;10.992;2023-07-02T06:22:22;25.60;99.90
24286;DHT22;26641;45.416;10.992;2023-07-02T06:24:48;25.50;99.90
24286;DHT22;26641;45.416;10.992;2023-07-02T06:27:14;25.50;99.90
24286;DHT22;26641;45.416;10.992;2023-07-02T06:29:40;25.50;99.90
24286;DHT22;26641;45.416;10.992;2023-07-02T06:32:06;25.60;99.90
24286;DHT22;26641;45.416;10.992;2023-07-02T06:34:32;25.50;99.90
24286;DHT22;26641;45.416;10.992;2023-07-02T06:36:58;25.60;99.90
24286;DHT22;26641;45.416;10.992;2023-07-02T06:39:24;25.60;99.90
24286;DHT22;26641;45.416;10.992;2023-07-02T06:41:50;25.60;99.90
24286;DHT22;26641;45.416;10.992;2023-07-02T06:44:17;25.50;99.90
24286;DHT22;26641;45.416;10.992;2023-07-02T06:46:45;25.60;99.90
24286;DHT22;26641;45.416;10.992;2023-07-02T06:49:11;25.50;99.90
24286;DHT22;26641;45.416;10.992;2023-07-02T06:51:37;25.60;99.90
24286;DHT22;26641;45.416;10.992;2023-07-02T06:54:02;25.60;99.90
24286;DHT22;26641;45.416;10.992;2023-07-02T06:56:28;25.50;99.90
24286;DHT22;26641;45.416;10.992;2023-07-02T06:58:54;25.60;99.90
24286;DHT22;26641;45.416;10.992;2023-07-02T07:01:20;25.60;99.90
24286;DHT22;26641;45.416;10.992;2023-07-02T07:03:47;25.50;99.90
24286;DHT22;26641;45.416;10.992;2023-07-02T07:06:13;25.50;99.90
24286;DHT22;26641;45.416;10.992;2023-07-02T07:08:39;25.60;99.90
24286;DHT22;26641;45.416;10.992;2023-07-02T07:11:05;25.60;99.90
24286;DHT22;26641;45.416;10.992;2023-07-02T07:13:31;25.50;99.90
24286;DHT22;26641;45.416;10.992;2023-07-02T07:15:58;25.50;99.90
24286;DHT22;26641;45.416;10.992;2023-07-02T07:18:24;25.60;99.90
24286;DHT22;26641;45.416;10.992;2023-07-02T07:20:50;25.50;99.90
24286;DHT22;26641;45.416;10.992;2023-07-02T07:23:18;25.60;99.90
24286;DHT22;26641;45.416;10.992;2023-07-02T07:25:43;25.60;99.90
24286;DHT22;26641;45.416;10.992;2023-07-02T07:28:09;25.60;99.90
24286;DHT22;26641;45.416;10.992;2023-07-02T07:30:43;25.60;99.90
24286;DHT22;26641;45.416;10.992;2023-07-02T07:33:10;25.60;99.90
24286;DHT22;26641;45.416;10.992;2023-07-02T07:35:36;25.60;99.90
24286;DHT22;26641;45.416;10.992;2023-07-02T07:38:02;25.60;99.90
24286;DHT22;26641;45.416;10.992;2023-07-02T07:40:28;25.60;99.90
24286;DHT22;26641;45.416;10.992;2023-07-02T07:42:54;25.60;99.90
24286;DHT22;26641;45.416;10.992;2023-07-02T07:45:20;25.60;99.90
24286;DHT22;26641;45.416;10.992;2023-07-02T07:47:46;25.60;99.90
24286;DHT22;26641;45.416;10.992;2023-07-02T07:50:13;25.60;99.90
24286;DHT22;26641;45.416;10.992;2023-07-02T07:52:41;25.60;99.90
24286;DHT22;26641;45.416;10.992;2023-07-02T07:55:07;25.60;99.90
24286;DHT22;26641;45.416;10.992;2023-07-02T07:57:34;25.60;99.90
24286;DHT22;26641;45.416;10.992;2023-07-02T08:00:00;25.60;99.90
24286;DHT22;26641;45.416;10.992;2023-07-02T08:02:26;25.60;99.90
24286;DHT22;26641;45.416;10.992;2023-07-02T08:04:51;25.60;99.90
24286;DHT22;26641;45.416;10.992;2023-07-02T08:07:17;25.60;99.90
24286;DHT22;26641;45.416;10.992;2023-07-02T08:09:48;25.60;99.90
24286;DHT22;26641;45.416;10.992;2023-07-02T08:12:14;25.70;99.90
24286;DHT22;26641;45.416;10.992;2023-07-02T08:14:40;25.60;99.90
24286;DHT22;26641;45.416;10.992;2023-07-02T08:17:06;25.60;99.90
24286;DHT22;26641;45.416;10.992;2023-07-02T08:19:31;25.70;99.90
24286;DHT22;26641;45.416;10.992;2023-07-02T08:21:57;25.70;99.90
24286;DHT22;26641;45.416;10.992;2023-07-02T08:24:23;25.70;99.90
24286;DHT22;26641;45.416;10.992;2023-07-02T08:26:49;25.70;99.90
24286;DHT22;26641;45.416;10.992;2023-07-02T08:29:15;25.70;99.90
24286;DHT22;26641;45.416;10.992;2023-07-02T08:31:41;25.60;99.90
24286;DHT22;26641;45.416;10.992;2023-07-02T08:34:06;25.70;99.90
24286;DHT22;26641;45.416;10.992;2023-07-02T08:36:32;25.70;99.90
24286;DHT22;26641;45.416;10.992;2023-07-02T08:38:58;25.70;99.90
24286;DHT22;26641;45.416;10.992;2023-07-02T08:41:25;25.70;99.90
24286;DHT22;26641;45.416;10.992;2023-07-02T08:43:54;25.70;99.90
24286;DHT22;26641;45.416;10.992;2023-07-02T08:46:20;25.70;99.90
24286;DHT22;26641;45.416;10.992;2023-07-02T08:48:49;25.70;99.90
24286;DHT22;26641;45.416;10.992;2023-07-02T08:51:15;25.70;99.90
24286;DHT22;26641;45.416;10.992;2023-07-02T08:53:44;25.70;99.90
24286;DHT22;26641;45.416;10.992;2023-07-02T08:56:09;25.70;99.90
24286;DHT22;26641;45.416;10.992;2023-07-02T08:58:35;25.70;99.90
24286;DHT22;26641;45.416;10.992;2023-07-02T09:01:04;25.70;99.90
24286;DHT22;26641;45.416;10.992;2023-07-02T09:03:31;25.70;99.90
24286;DHT22;26641;45.416;10.992;2023-07-02T09:05:57;25.70;99.90
24286;DHT22;26641;45.416;10.992;2023-07-02T09:08:26;25.80;99.90
24286;DHT22;26641;45.416;10.992;2023-07-02T09:10:53;25.80;99.90
24286;DHT22;26641;45.416;10.992;2023-07-02T09:13:19;25.80;99.90
24286;DHT22;26641;45.416;10.992;2023-07-02T09:15:44;25.80;99.90
24286;DHT22;26641;45.416;10.992;2023-07-02T09:18:21;25.70;99.90
24286;DHT22;26641;45.416;10.992;2023-07-02T09:20:50;25.80;99.90
24286;DHT22;26641;45.416;10.992;2023-07-02T09:23:16;25.70;99.90
24286;DHT22;26641;45.416;10.992;2023-07-02T09:25:41;25.80;99.90
24286;DHT22;26641;45.416;10.992;2023-07-02T09:28:14;25.80;99.90
24286;DHT22;26641;45.416;10.992;2023-07-02T09:30:48;25.80;99.90
24286;DHT22;26641;45.416;10.992;2023-07-02T09:33:15;25.80;99.90
24286;DHT22;26641;45.416;10.992;2023-07-02T09:35:40;25.80;99.90
24286;DHT22;26641;45.416;10.992;2023-07-02T09:38:06;25.80;99.90
24286;DHT22;26641;45.416;10.992;2023-07-02T09:40:33;25.80;99.90
24286;DHT22;26641;45.416;10.992;2023-07-02T09:42:58;25.80;99.90
24286;DHT22;26641;45.416;10.992;2023-07-02T09:45:24;25.80;99.90
24286;DHT22;26641;45.416;10.992;2023-07-02T09:47:51;25.80;99.90
24286;DHT22;26641;45.416;10.992;2023-07-02T09:50:17;25.80;99.90
24286;DHT22;26641;45.416;10.992;2023-07-02T09:52:44;25.80;99.90
24286;DHT22;26641;45.416;10.992;2023-07-02T09:55:11;25.80;99.90
24286;DHT22;26641;45.416;10.992;2023-07-02T09:57:37;25.80;99.90
24286;DHT22;26641;45.416;10.992;2023-07-02T10:00:04;25.80;99.90
24286;DHT22;26641;45.416;10.992;2023-07-02T10:02:30;25.80;99.90
24286;DHT22;26641;45.416;10.992;2023-07-02T10:04:56;25.80;99.90
24286;DHT22;26641;45.416;10.992;2023-07-02T10:07:26;25.80;99.90
24286;DHT22;26641;45.416;10.992;2023-07-02T10:09:52;25.80;99.90
24286;DHT22;26641;45.416;10.992;2023-07-02T10:12:19;25.80;99.90
24286;DHT22;26641;45.416;10.992;2023-07-02T10:14:48;25.80;99.90
24286;DHT22;26641;45.416;10.992;2023-07-02T10:17:30;25.80;99.90
24286;DHT22;26641;45.416;10.992;2023-07-02T10:20:00;25.90;99.90
24286;DHT22;26641;45.416;10.992;2023-07-02T10:22:26;25.90;99.90
24286;DHT22;26641;45.416;10.992;2023-07-02T10:24:55;25.80;99.90
24286;DHT22;26641;45.416;10.992;2023-07-02T10:27:38;25.80;99.90
24286;DHT22;26641;45.416;10.992;2023-07-02T10:30:05;25.80;99.90
24286;DHT22;26641;45.416;10.992;2023-07-02T10:32:31;25.90;99.90
24286;DHT22;26641;45.416;10.992;2023-07-02T10:34:59;25.90;99.90
24286;DHT22;26641;45.416;10.992;2023-07-02T10:37:34;25.90;99.90
24286;DHT22;26641;45.416;10.992;2023-07-02T10:40:05;25.90;99.90
24286;DHT22;26641;45.416;10.992;2023-07-02T10:42:31;25.90;99.90
24286;DHT22;26641;45.416;10.992;2023-07-02T10:44:59;25.90;99.90
24286;DHT22;26641;45.416;10.992;2023-07-02T10:47:25;25.90;99.90
24286;DHT22;26641;45.416;10.992;2023-07-02T10:49:50;25.90;99.90
24286;DHT22;26641;45.416;10.992;2023-07-02T10:52:16;25.90;99.90
24286;DHT22;26641;45.416;10.992;2023-07-02T10:54:43;25.90;99.90
24286;DHT22;26641;45.416;10.992;2023-07-02T10:57:15;25.90;99.90
24286;DHT22;26641;45.416;10.992;2023-07-02T10:59:47;25.90;99.90
24286;DHT22;26641;45.416;10.992;2023-07-02T11:02:13;25.90;99.90
24286;DHT22;26641;45.416;10.992;2023-07-02T11:04:39;25.90;99.90
24286;DHT22;26641;45.416;10.992;2023-07-02T11:07:05;25.90;99.90
24286;DHT22;26641;45.416;10.992;2023-07-02T11:09:31;26.00;99.90
24286;DHT22;26641;45.416;10.992;2023-07-02T11:11:59;25.90;99.90
24286;DHT22;26641;45.416;10.992;2023-07-02T11:14:35;26.00;99.90
24286;DHT22;26641;45.416;10.992;2023-07-02T11:17:05;25.90;99.90
24286;DHT22;26641;45.416;10.992;2023-07-02T11:19:33;25.90;99.90
24286;DHT22;26641;45.416;10.992;2023-07-02T11:22:00;26.00;99.90
24286;DHT22;26641;45.416;10.992;2023-07-02T11:24:35;25.90;99.90
24286;DHT22;26641;45.416;10.992;2023-07-02T11:27:02;26.00;99.90
24286;DHT22;26641;45.416;10.992;2023-07-02T11:29:32;25.90;99.90
24286;DHT22;26641;45.416;10.992;2023-07-02T11:32:08;26.00;99.90
24286;DHT22;26641;45.416;10.992;2023-07-02T11:34:34;26.00;99.90
24286;DHT22;26641;45.416;10.992;2023-07-02T11:37:00;26.00;99.90
24286;DHT22;26641;45.416;10.992;2023-07-02T11:39:26;26.00;99.90
24286;DHT22;26641;45.416;10.992;2023-07-02T11:41:52;26.00;99.90
24286;DHT22;26641;45.416;10.992;2023-07-02T11:44:18;26.00;99.90
24286;DHT22;26641;45.416;10.992;2023-07-02T11:46:44;26.00;99.90
24286;DHT22;26641;45.416;10.992;2023-07-02T11:49:10;26.00;99.90
24286;DHT22;26641;45.416;10.992;2023-07-02T11:51:36;26.00;99.90
24286;DHT22;26641;45.416;10.992;2023-07-02T11:54:05;26.00;99.90
24286;DHT22;26641;45.416;10.992;2023-07-02T11:56:31;26.00;99.90
24286;DHT22;26641;45.416;10.992;2023-07-02T11:58:57;26.00;99.90
24286;DHT22;26641;45.416;10.992;2023-07-02T12:01:23;26.00;99.90
24286;DHT22;26641;45.416;10.992;2023-07-02T12:03:49;26.00;99.90
24286;DHT22;26641;45.416;10.992;2023-07-02T12:06:15;26.10;99.90
24286;DHT22;26641;45.416;10.992;2023-07-02T12:08:41;26.00;99.90
24286;DHT22;26641;45.416;10.992;2023-07-02T12:11:07;26.10;99.90
24286;DHT22;26641;45.416;10.992;2023-07-02T12:13:33;26.00;99.90
24286;DHT22;26641;45.416;10.992;2023-07-02T12:15:59;26.10;99.90
24286;DHT22;26641;45.416;10.992;2023-07-02T12:18:25;26.10;99.90
24286;DHT22;26641;45.416;10.992;2023-07-02T12:20:51;26.10;99.90
24286;DHT22;26641;45.416;10.992;2023-07-02T12:23:17;26.10;99.90
24286;DHT22;26641;45.416;10.992;2023-07-02T12:25:43;26.10;99.90
24286;DHT22;26641;45.416;10.992;2023-07-02T12:28:09;26.10;99.90
24286;DHT22;26641;45.416;10.992;2023-07-02T12:30:35;26.10;99.90
24286;DHT22;26641;45.416;10.992;2023-07-02T12:33:00;26.10;99.90
24286;DHT22;26641;45.416;10.992;2023-07-02T12:35:26;26.10;99.90
24286;DHT22;26641;45.416;10.992;2023-07-02T12:37:52;26.10;99.90
24286;DHT22;26641;45.416;10.992;2023-07-02T12:40:18;26.10;99.90
24286;DHT22;26641;45.416;10.992;2023-07-02T12:42:44;26.10;99.90
24286;DHT22;26641;45.416;10.992;2023-07-02T12:45:11;26.10;99.90
24286;DHT22;26641;45.416;10.992;2023-07-02T12:47:37;26.10;99.90
24286;DHT22;26641;45.416;10.992;2023-07-02T12:50:03;26.10;99.90
24286;DHT22;26641;45.416;10.992;2023-07-02T12:52:32;26.10;99.90
24286;DHT22;26641;45.416;10.992;2023-07-02T12:54:58;26.10;99.90
24286;DHT22;26641;45.416;10.992;2023-07-02T12:57:24;26.10;99.90
24286;DHT22;26641;45.416;10.992;2023-07-02T12:59:54;26.10;99.90
24286;DHT22;26641;45.416;10.992;2023-07-02T13:02:21;26.10;99.90
24286;DHT22;26641;45.416;10.992;2023-07-02T13:04:48;26.10;99.90
24286;DHT22;26641;45.416;10.992;2023-07-02T13:07:14;26.10;99.90
24286;DHT22;26641;45.416;10.992;2023-07-02T13:09:40;26.10;99.90
24286;DHT22;26641;45.416;10.992;2023-07-02T13:12:06;26.10;99.90
24286;DHT22;26641;45.416;10.992;2023-07-02T13:14:33;26.10;99.90
24286;DHT22;26641;45.416;10.992;2023-07-02T13:16:58;26.10;99.90
24286;DHT22;26641;45.416;10.992;2023-07-02T13:19:30;26.10;99.90
24286;DHT22;26641;45.416;10.992;2023-07-02T13:21:56;26.10;99.90
24286;DHT22;26641;45.416;10.992;2023-07-02T13:24:22;26.10;99.90
24286;DHT22;26641;45.416;10.992;2023-07-02T13:26:47;26.10;99.90
24286;DHT22;26641;45.416;10.992;2023-07-02T13:29:14;26.10;99.90
24286;DHT22;26641;45.416;10.992;2023-07-02T13:31:40;26.10;99.90
24286;DHT22;26641;45.416;10.992;2023-07-02T13:34:06;26.10;99.90
24286;DHT22;26641;45.416;10.992;2023-07-02T13:36:31;26.10;99.90
24286;DHT22;26641;45.416;10.992;2023-07-02T13:38:57;26.10;99.90
24286;DHT22;26641;45.416;10.992;2023-07-02T13:41:26;26.10;99.90
24286;DHT22;26641;45.416;10.992;2023-07-02T13:43:55;26.10;99.90
24286;DHT22;26641;45.416;10.992;2023-07-02T13:46:21;26.10;99.90
24286;DHT22;26641;45.416;10.992;2023-07-02T13:48:47;26.20;99.90
24286;DHT22;26641;45.416;10.992;2023-07-02T13:51:13;26.20;99.90
24286;DHT22;26641;45.416;10.992;2023-07-02T13:53:39;26.20;99.90
24286;DHT22;26641;45.416;10.992;2023-07-02T13:56:05;26.20;99.90
24286;DHT22;26641;45.416;10.992;2023-07-02T13:58:58;26.20;99.90
24286;DHT22;26641;45.416;10.992;2023-07-02T14:01:24;26.20;99.90
24286;DHT22;26641;45.416;10.992;2023-07-02T14:03:50;26.20;99.90
24286;DHT22;26641;45.416;10.992;2023-07-02T14:06:15;26.20;99.90
24286;DHT22;26641;45.416;10.992;2023-07-02T14:08:42;26.20;99.90
24286;DHT22;26641;45.416;10.992;2023-07-02T14:11:08;26.20;99.90
24286;DHT22;26641;45.416;10.992;2023-07-02T14:13:34;26.20;99.90
24286;DHT22;26641;45.416;10.992;2023-07-02T14:16:00;26.20;99.90
24286;DHT22;26641;45.416;10.992;2023-07-02T14:18:26;26.20;99.90
24286;DHT22;26641;45.416;10.992;2023-07-02T14:20:52;26.20;99.90
24286;DHT22;26641;45.416;10.992;2023-07-02T14:23:19;26.20;99.90
24286;DHT22;26641;45.416;10.992;2023-07-02T14:25:45;26.20;99.90
24286;DHT22;26641;45.416;10.992;2023-07-02T14:28:14;26.20;99.90
24286;DHT22;26641;45.416;10.992;2023-07-02T14:30:40;26.20;99.90
24286;DHT22;26641;45.416;10.992;2023-07-02T14:33:08;26.20;99.90
24286;DHT22;26641;45.416;10.992;2023-07-02T14:35:34;26.20;99.90
24286;DHT22;26641;45.416;10.992;2023-07-02T14:38:03;26.20;99.90
24286;DHT22;26641;45.416;10.992;2023-07-02T14:40:31;26.30;99.90
24286;DHT22;26641;45.416;10.992;2023-07-02T14:42:56;26.30;99.90
24286;DHT22;26641;45.416;10.992;2023-07-02T14:45:22;26.20;99.90
24286;DHT22;26641;45.416;10.992;2023-07-02T14:47:48;26.30;99.90
24286;DHT22;26641;45.416;10.992;2023-07-02T14:50:15;26.20;99.90
24286;DHT22;26641;45.416;10.992;2023-07-02T14:52:40;26.30;99.90
24286;DHT22;26641;45.416;10.992;2023-07-02T14:55:07;26.30;99.90
24286;DHT22;26641;45.416;10.992;2023-07-02T14:57:36;26.30;99.90
24286;DHT22;26641;45.416;10.992;2023-07-02T15:00:02;26.30;99.90
24286;DHT22;26641;45.416;10.992;2023-07-02T15:02:28;26.30;99.90
24286;DHT22;26641;45.416;10.992;2023-07-02T15:04:54;26.30;99.90
24286;DHT22;26641;45.416;10.992;2023-07-02T15:07:20;26.30;99.90
24286;DHT22;26641;45.416;10.992;2023-07-02T15:09:46;26.30;99.90
24286;DHT22;26641;45.416;10.992;2023-07-02T15:12:12;26.30;99.90